Time;durP1;ratioP1;P1;durP2;ratioP2;P2;SDS_P1;SDS_P2;PMS_P1;PMS_P2;Temp;Humidity;BMP_temperature;BMP_pressure;BME280_temperature;BME280_humidity;BME280_pressure;Samples;Min_cycle;Max_cycle;Signal;HPM_P1;HPM_P2
2021/11/05 07:01:43;;;;;;;12.93;1.80;;;6.90;99.90;;;;;;5243073;23;20518;-81
2021/11/05 07:04:10;;;;;;;9.73;1.58;;;6.90;99.90;;;;;;4883956;29;20462;-81
2021/11/05 07:06:44;;;;;;;5.97;1.42;;;6.90;99.90;;;;;;4889632;29;20112;-81
2021/11/05 07:09:13;;;;;;;10.77;1.30;;;7.00;99.90;;;;;;4885083;29;20081;-81
2021/11/05 07:11:41;;;;;;;19.50;1.45;;;7.00;99.90;;;;;;4896446;29;20072;-81
2021/11/05 07:14:08;;;;;;;11.07;1.40;;;7.10;99.90;;;;;;4895405;29;20517;-81
2021/11/05 07:16:37;;;;;;;8.38;1.77;;;7.20;99.90;;;;;;4896306;29;20041;-81
2021/11/05 07:19:06;;;;;;;8.00;0.93;;;7.20;99.90;;;;;;4896050;29;20519;-81
2021/11/05 07:21:33;;;;;;;5.88;1.45;;;7.30;99.90;;;;;;4880116;29;20077;-81
2021/11/05 07:24:02;;;;;;;6.00;2.00;;;7.30;99.90;;;;;;4896297;29;20100;-81
2021/11/05 07:26:37;;;;;;;6.75;1.70;;;7.40;99.90;;;;;;4895468;29;20049;-81
2021/11/05 07:29:06;;;;;;;11.35;1.40;;;7.40;99.90;;;;;;4895875;29;20048;-81
2021/11/05 07:31:34;;;;;;;5.65;1.35;;;7.40;99.90;;;;;;4894637;29;20426;-81
2021/11/05 07:34:01;;;;;;;7.07;1.52;;;7.50;99.90;;;;;;4894709;29;20520;-82
2021/11/05 07:36:28;;;;;;;7.03;1.38;;;7.50;99.90;;;;;;4894327;29;20045;-81
2021/11/05 07:38:55;;;;;;;8.23;1.55;;;7.60;99.90;;;;;;4894899;29;20120;-82
2021/11/05 07:41:25;;;;;;;8.07;1.10;;;7.60;99.90;;;;;;4893707;29;20053;-81
2021/11/05 07:43:53;;;;;;;9.75;2.15;;;7.70;99.90;;;;;;4894165;29;20506;-81
2021/11/05 07:46:20;;;;;;;7.30;1.20;;;7.70;99.90;;;;;;4895776;29;20105;-81
2021/11/05 07:48:47;;;;;;;9.32;1.77;;;7.80;99.90;;;;;;4881056;29;20072;-81
2021/11/05 07:51:15;;;;;;;3.60;0.87;;;7.80;99.90;;;;;;4877176;29;20081;-81
2021/11/05 07:53:42;;;;;;;10.90;2.78;;;7.90;99.90;;;;;;4882444;29;20048;-81
2021/11/05 07:56:09;;;;;;;8.07;2.22;;;8.00;99.90;;;;;;4890552;29;20053;-82
2021/11/05 07:58:56;;;;;;;14.20;2.90;;;8.00;99.90;;;;;;4888714;29;20144;-81
2021/11/05 08:01:23;;;;;;;29.70;20.98;;;8.10;99.90;;;;;;4884065;29;20087;-81
2021/11/05 08:03:50;;;;;;;22.60;9.43;;;8.10;99.90;;;;;;4885649;29;20060;-81
2021/11/05 08:06:17;;;;;;;10.57;4.55;;;8.10;99.90;;;;;;4893196;29;20517;-82
2021/11/05 08:08:44;;;;;;;8.23;3.80;;;8.10;99.90;;;;;;4894517;29;20466;-81
2021/11/05 08:11:12;;;;;;;19.75;11.50;;;8.10;99.90;;;;;;4893404;29;20493;-81
2021/11/05 08:13:41;;;;;;;20.48;12.63;;;8.10;99.90;;;;;;4890442;29;20531;-81
2021/11/05 08:16:09;;;;;;;15.32;9.35;;;8.10;99.90;;;;;;4889831;29;20064;-81
2021/11/05 08:18:36;;;;;;;7.13;2.63;;;8.10;99.90;;;;;;4887095;29;20564;-81
2021/11/05 08:21:03;;;;;;;11.43;6.65;;;8.10;99.90;;;;;;4891263;29;20474;-81
2021/11/05 08:23:30;;;;;;;23.77;13.90;;;8.20;99.90;;;;;;4887205;29;20119;-80
2021/11/05 08:25:57;;;;;;;13.98;7.00;;;8.20;99.90;;;;;;4890283;29;20049;-81
2021/11/05 08:28:24;;;;;;;9.73;1.90;;;8.20;99.90;;;;;;4889333;29;20049;-81
2021/11/05 08:30:52;;;;;;;33.70;14.98;;;8.20;99.90;;;;;;4890028;29;20172;-81
2021/11/05 08:33:20;;;;;;;10.75;2.15;;;8.20;99.90;;;;;;4888025;29;20929;-81
2021/11/05 08:35:50;;;;;;;5.57;1.42;;;8.20;99.90;;;;;;4889599;29;20064;-81
2021/11/05 08:38:19;;;;;;;5.95;2.08;;;8.30;99.90;;;;;;4876434;29;20437;-81
2021/11/05 08:40:47;;;;;;;;;;;8.30;99.90;;;;;;4886269;29;20078;-81
2021/11/05 08:43:17;;;;;;;13.55;4.65;;;8.30;99.90;;;;;;4880249;29;19927;-81
2021/11/05 08:45:44;;;;;;;21.77;8.30;;;8.40;99.90;;;;;;4878806;29;20052;-81
2021/11/05 08:48:11;;;;;;;19.65;12.40;;;8.50;99.90;;;;;;4868790;29;20045;-80
2021/11/05 08:50:38;;;;;;;37.40;18.40;;;8.50;99.90;;;;;;4890519;29;20053;-81
2021/11/05 08:53:10;;;;;;;7.05;2.78;;;8.60;99.90;;;;;;4875334;29;20144;-80
2021/11/05 08:55:38;;;;;;;10.85;4.47;;;8.70;99.90;;;;;;4880473;29;20068;-80
2021/11/05 08:58:07;;;;;;;16.40;6.20;;;8.80;99.90;;;;;;4873438;29;20053;-80
2021/11/05 09:00:36;;;;;;;9.70;2.70;;;8.90;99.90;;;;;;4886397;29;20143;-80
2021/11/05 09:03:04;;;;;;;6.45;1.70;;;9.10;99.90;;;;;;4887728;29;20120;-80
2021/11/05 09:05:35;;;;;;;11.48;3.25;;;9.20;99.90;;;;;;4888408;29;20049;-80
2021/11/05 09:08:04;;;;;;;11.43;2.05;;;9.30;99.90;;;;;;4882280;29;20085;-81
2021/11/05 09:10:31;;;;;;;6.57;1.75;;;9.40;99.90;;;;;;4886553;29;20584;-80
2021/11/05 09:12:58;;;;;;;9.45;1.92;;;9.50;99.90;;;;;;4889065;29;20480;-80
2021/11/05 09:15:28;;;;;;;7.18;1.70;;;9.50;99.90;;;;;;4889380;29;20052;-80
2021/11/05 09:17:57;;;;;;;8.27;1.40;;;9.60;99.90;;;;;;4890839;29;20073;-80
2021/11/05 09:20:24;;;;;;;7.53;1.25;;;9.60;99.90;;;;;;4890412;29;20048;-80
2021/11/05 09:22:51;;;;;;;10.18;2.33;;;9.70;99.90;;;;;;4891707;29;20048;-80
2021/11/05 09:25:18;;;;;;;9.18;1.40;;;9.80;99.90;;;;;;4891150;29;20434;-80
2021/11/05 09:27:46;;;;;;;7.13;1.83;;;9.90;99.90;;;;;;4895394;29;20060;-81
2021/11/05 09:30:14;;;;;;;2.97;0.80;;;10.00;99.90;;;;;;4896210;29;20127;-81
2021/11/05 09:32:41;;;;;;;6.07;1.20;;;10.10;99.90;;;;;;4880000;29;20414;-80
2021/11/05 09:35:14;;;;;;;9.23;1.77;;;10.10;99.90;;;;;;4895721;29;20056;-81
2021/11/05 09:37:43;;;;;;;7.45;1.40;;;10.20;99.90;;;;;;4896162;29;20045;-80
2021/11/05 09:40:13;;;;;;;7.93;1.92;;;10.30;99.90;;;;;;4895594;29;20083;-78
2021/11/05 09:42:41;;;;;;;11.48;1.70;;;10.40;99.90;;;;;;4881680;29;20044;-79
2021/11/05 09:45:10;;;;;;;9.35;1.48;;;10.50;99.90;;;;;;4893342;29;20490;-80
2021/11/05 09:47:40;;;;;;;5.63;1.05;;;10.50;99.90;;;;;;4896221;29;20052;-79
2021/11/05 09:50:12;;;;;;;7.88;1.02;;;10.50;99.90;;;;;;4895822;29;20140;-80
2021/11/05 09:52:39;;;;;;;4.47;0.80;;;10.60;99.90;;;;;;4896501;29;20048;-79
2021/11/05 09:55:08;;;;;;;11.23;1.60;;;10.70;99.90;;;;;;4896082;29;20104;-81
2021/11/05 09:57:35;;;;;;;5.63;1.23;;;10.80;99.90;;;;;;4896815;29;20139;-78
2021/11/05 10:00:04;;;;;;;5.95;0.90;;;10.80;99.90;;;;;;4896716;29;20544;-80
2021/11/05 10:02:31;;;;;;;6.65;0.80;;;10.90;99.90;;;;;;4894568;29;20068;-80
2021/11/05 10:04:58;;;;;;;7.03;1.15;;;10.90;99.90;;;;;;4893116;29;20147;-80
2021/11/05 10:07:26;;;;;;;5.60;1.00;;;11.00;99.90;;;;;;4895651;29;20049;-80
2021/11/05 10:09:55;;;;;;;6.20;1.10;;;11.00;99.90;;;;;;4896870;29;20053;-80
2021/11/05 10:12:28;;;;;;;7.72;1.10;;;11.10;99.90;;;;;;4895697;29;20081;-79
2021/11/05 10:15:00;;;;;;;5.82;1.20;;;11.10;99.90;;;;;;4894756;29;20060;-79
2021/11/05 10:17:28;;;;;;;6.90;1.00;;;11.10;99.90;;;;;;4886397;29;20044;-80
2021/11/05 10:20:04;;;;;;;5.77;1.20;;;11.20;99.90;;;;;;4890817;29;20100;-80
2021/11/05 10:22:49;;;;;;;9.65;0.90;;;11.20;99.90;;;;;;4896005;29;20044;-79
2021/11/05 10:25:24;;;;;;;5.22;0.82;;;11.20;99.90;;;;;;4894987;29;20045;-80
2021/11/05 10:28:04;;;;;;;7.00;1.00;;;11.20;99.90;;;;;;4894467;29;20055;-79
2021/11/05 10:30:33;;;;;;;9.05;1.27;;;11.20;99.90;;;;;;4894507;29;20108;-79
2021/11/05 10:33:01;;;;;;;;;;;11.20;99.90;;;;;;4896934;29;20049;-81
2021/11/05 10:35:28;;;;;;;6.13;0.93;;;11.30;99.90;;;;;;4889044;29;19932;-81
2021/11/05 10:38:01;;;;;;;5.15;0.82;;;11.30;99.90;;;;;;4888614;29;20294;-81
2021/11/05 10:40:32;;;;;;;5.47;0.98;;;11.30;99.90;;;;;;4873349;29;20052;-81
2021/11/05 10:42:59;;;;;;;8.25;1.10;;;11.40;99.90;;;;;;4892704;29;20084;-83
2021/11/05 10:45:27;;;;;;;5.55;0.88;;;11.40;99.90;;;;;;4888089;29;20104;-84
2021/11/05 10:47:54;;;;;;;9.27;1.30;;;11.40;99.90;;;;;;4885702;29;20081;-82
2021/11/05 10:50:25;;;;;;;6.10;1.17;;;11.40;99.90;;;;;;4880278;29;20112;-83
2021/11/05 10:53:04;;;;;;;8.02;1.00;;;11.40;99.90;;;;;;4888240;29;20057;-81
2021/11/05 10:56:06;;;;;;;5.82;0.98;;;11.40;99.90;;;;;;4886227;29;20116;-81
2021/11/05 10:58:41;;;;;;;4.53;0.85;;;11.40;99.90;;;;;;4794862;29;20078;-78
2021/11/05 11:01:12;;;;;;;7.53;1.02;;;11.40;99.90;;;;;;4781111;29;20074;-82
2021/11/05 11:03:44;;;;;;;5.70;1.00;;;11.40;99.90;;;;;;4795429;29;20151;-81
2021/11/05 11:06:18;;;;;;;4.72;1.52;;;11.50;99.90;;;;;;4797157;29;20123;-81
2021/11/05 11:08:50;;;;;;;2.72;0.70;;;11.50;99.90;;;;;;4795907;29;20054;-82
2021/11/05 11:11:26;;;;;;;6.50;0.90;;;11.50;99.90;;;;;;4792993;29;20640;-80
2021/11/05 11:13:59;;;;;;;3.67;1.00;;;11.50;99.90;;;;;;4794583;29;20524;-80
2021/11/05 11:16:32;;;;;;;6.05;1.45;;;11.50;99.90;;;;;;4794419;29;20098;-82
2021/11/05 11:19:02;;;;;;;8.57;1.00;;;11.50;99.90;;;;;;4794697;29;20785;-81
2021/11/05 11:21:33;;;;;;;5.22;1.00;;;11.50;99.90;;;;;;4792817;29;20140;-81
2021/11/05 11:24:03;;;;;;;8.80;1.00;;;11.40;99.90;;;;;;4795047;29;20050;-81
2021/11/05 11:26:31;;;;;;;11.57;1.38;;;11.40;99.90;;;;;;4794223;29;20629;-82
2021/11/05 11:28:58;;;;;;;7.70;1.00;;;11.40;99.90;;;;;;4794672;29;20401;-81
2021/11/05 11:31:26;;;;;;;8.23;1.25;;;11.40;99.90;;;;;;4795588;29;20054;-79
2021/11/05 11:33:53;;;;;;;8.73;0.90;;;11.50;99.90;;;;;;4887142;29;20084;-80
2021/11/05 11:36:21;;;;;;;6.30;0.75;;;11.50;99.90;;;;;;4886929;29;20108;-79
2021/11/05 11:38:50;;;;;;;6.55;1.10;;;11.50;99.90;;;;;;4888411;29;20049;-80
2021/11/05 11:41:19;;;;;;;9.35;1.85;;;11.50;99.90;;;;;;4887105;29;20054;-81
2021/11/05 11:43:47;;;;;;;6.82;1.23;;;11.50;99.90;;;;;;4888686;29;20521;-80
2021/11/05 11:46:14;;;;;;;6.20;1.65;;;11.60;99.90;;;;;;4875912;29;20072;-81
2021/11/05 11:48:53;;;;;;;6.15;1.00;;;11.60;99.90;;;;;;4876684;29;20044;-83
2021/11/05 11:51:25;;;;;;;4.95;0.95;;;11.70;99.90;;;;;;4876688;29;20541;-81
2021/11/05 11:54:02;;;;;;;3.72;0.90;;;11.80;99.90;;;;;;4876141;29;20608;-81
2021/11/05 11:56:35;;;;;;;5.57;1.15;;;11.80;99.90;;;;;;4860930;29;20124;-82
2021/11/05 11:59:04;;;;;;;6.30;0.88;;;11.90;99.90;;;;;;4869148;29;20112;-83
2021/11/05 12:01:35;;;;;;;7.50;1.10;;;11.90;99.90;;;;;;4881012;29;20049;-80
2021/11/05 12:04:07;;;;;;;5.70;1.10;;;12.00;99.90;;;;;;4877236;29;20136;-77
2021/11/05 12:06:46;;;;;;;5.00;1.10;;;12.00;99.90;;;;;;4875045;29;20059;-81
2021/11/05 12:09:36;;;;;;;4.55;0.82;;;12.00;99.90;;;;;;4873324;29;20477;-82
2021/11/05 12:12:31;;;;;;;7.10;1.17;;;12.00;99.90;;;;;;4873975;29;20588;-82
2021/11/05 12:15:03;;;;;;;9.40;1.15;;;12.10;99.90;;;;;;4870952;29;20057;-81
2021/11/05 12:17:45;;;;;;;4.15;1.00;;;12.10;99.90;;;;;;4873669;29;20502;-82
2021/11/05 12:20:33;;;;;;;4.97;1.05;;;12.10;99.90;;;;;;4883407;29;20156;-82
2021/11/05 12:23:09;;;;;;;8.80;1.35;;;12.10;99.90;;;;;;4873519;29;20060;-82
2021/11/05 12:25:56;;;;;;;3.60;1.10;;;12.10;99.90;;;;;;4887213;29;20478;-81
2021/11/05 12:28:41;;;;;;;4.45;1.10;;;12.10;99.90;;;;;;4883504;29;20117;-81
2021/11/05 12:31:27;;;;;;;4.55;1.08;;;12.00;99.90;;;;;;4885270;29;20462;-81
2021/11/05 12:33:55;;;;;;;7.65;0.98;;;12.00;99.90;;;;;;4889462;29;20565;-81
2021/11/05 12:36:49;;;;;;;8.98;1.40;;;11.90;99.90;;;;;;4889216;29;20048;-80
2021/11/05 12:39:31;;;;;;;6.35;0.90;;;11.90;99.90;;;;;;4886303;29;20471;-80
2021/11/05 12:42:08;;;;;;;3.40;0.90;;;11.80;99.90;;;;;;4879163;29;20049;-80
2021/11/05 12:45:00;;;;;;;7.32;0.93;;;11.80;99.90;;;;;;4878754;29;20065;-80
2021/11/05 12:47:53;;;;;;;7.57;1.08;;;11.90;99.90;;;;;;4864366;29;20055;-79
2021/11/05 12:50:21;;;;;;;5.70;1.33;;;12.00;99.90;;;;;;4880811;29;20557;-80
2021/11/05 12:53:06;;;;;;;3.97;0.70;;;12.00;99.90;;;;;;4877391;29;20049;-80
2021/11/05 12:55:39;;;;;;;4.60;0.82;;;12.10;99.90;;;;;;4851863;29;20452;-80
2021/11/05 12:58:12;;;;;;;2.63;0.68;;;12.20;99.90;;;;;;4878412;29;20068;-79
2021/11/05 13:00:58;;;;;;;4.72;0.90;;;12.30;99.90;;;;;;4878362;29;20065;-80
2021/11/05 13:03:25;;;;;;;4.18;0.85;;;12.30;99.90;;;;;;4884901;29;20910;-80
2021/11/05 13:05:54;;;;;;;4.35;0.93;;;12.40;99.90;;;;;;4874033;29;20053;-80
2021/11/05 13:08:23;;;;;;;4.32;0.90;;;12.40;99.90;;;;;;4881801;29;20081;-78
2021/11/05 13:10:50;;;;;;;;;;;12.30;99.90;;;;;;4880270;29;20152;-79
2021/11/05 13:13:17;;;;;;;5.20;1.10;;;12.10;99.90;;;;;;4881609;29;19923;-78
2021/11/05 13:15:46;;;;;;;4.95;0.68;;;12.10;99.90;;;;;;4881107;29;20688;-79
2021/11/05 13:18:14;;;;;;;;;;;12.00;99.90;;;;;;4879909;29;20044;-79
2021/11/05 13:20:44;;;;;;;4.22;1.38;;;12.00;99.90;;;;;;4882025;29;19923;-79
2021/11/05 13:23:13;;;;;;;3.55;0.77;;;12.00;99.90;;;;;;4882587;29;20105;-78
2021/11/05 13:25:48;;;;;;;4.20;1.00;;;12.00;99.90;;;;;;4881080;29;20052;-78
2021/11/05 13:28:22;;;;;;;3.97;0.98;;;12.10;99.90;;;;;;4880766;29;20101;-78
2021/11/05 13:30:53;;;;;;;4.95;0.50;;;12.10;99.90;;;;;;4879732;29;20056;-79
2021/11/05 13:33:28;;;;;;;5.68;0.88;;;12.10;99.90;;;;;;4881298;29;20061;-78
2021/11/05 13:36:04;;;;;;;7.93;1.05;;;12.20;99.90;;;;;;4881390;29;20044;-78
2021/11/05 13:38:40;;;;;;;4.82;0.82;;;12.20;99.90;;;;;;4882059;29;20040;-79
2021/11/05 13:41:11;;;;;;;3.05;0.60;;;12.40;99.90;;;;;;4885324;29;20056;-79
2021/11/05 13:43:47;;;;;;;7.00;0.68;;;12.50;99.90;;;;;;4883036;29;20057;-78
2021/11/05 13:46:17;;;;;;;3.25;0.60;;;12.60;99.90;;;;;;4885772;29;20518;-80
2021/11/05 13:48:53;;;;;;;5.35;0.82;;;12.60;99.90;;;;;;4869017;29;20092;-79
2021/11/05 13:51:28;;;;;;;3.97;0.60;;;12.60;99.90;;;;;;4881705;29;20495;-80
2021/11/05 13:54:03;;;;;;;5.00;0.60;;;12.60;99.90;;;;;;4887780;29;20140;-79
2021/11/05 13:56:33;;;;;;;4.18;0.40;;;12.50;99.90;;;;;;4888660;29;20115;-78
2021/11/05 13:59:03;;;;;;;1.83;0.45;;;12.40;99.90;;;;;;4890229;29;20518;-79
2021/11/05 14:01:32;;;;;;;2.50;0.60;;;12.30;99.90;;;;;;4888921;29;20079;-79
2021/11/05 14:04:00;;;;;;;;;;;12.30;99.90;;;;;;4891131;29;20045;-79
2021/11/05 14:06:28;;;;;;;4.90;0.60;;;12.20;99.90;;;;;;4889032;29;19991;-80
2021/11/05 14:08:58;;;;;;;3.08;0.40;;;12.30;99.90;;;;;;4890985;29;20120;-79
2021/11/05 14:11:40;;;;;;;5.32;0.47;;;12.30;99.90;;;;;;4889141;29;20048;-79
2021/11/05 14:14:20;;;;;;;3.05;0.73;;;12.30;99.90;;;;;;4888600;29;20083;-79
2021/11/05 14:16:53;;;;;;;2.45;0.50;;;12.40;99.90;;;;;;4889987;29;20075;-79
2021/11/05 14:19:23;;;;;;;1.25;0.40;;;12.40;99.90;;;;;;4888782;29;20578;-79
2021/11/05 14:22:08;;;;;;;2.00;0.40;;;12.50;99.90;;;;;;4883478;29;20109;-79
2021/11/05 14:24:43;;;;;;;3.30;0.60;;;12.50;99.90;;;;;;4882441;29;20797;-79
2021/11/05 14:27:27;;;;;;;2.55;0.35;;;12.50;99.90;;;;;;4881704;29;20281;-78
2021/11/05 14:30:00;;;;;;;5.18;0.60;;;12.60;99.90;;;;;;4883748;29;20057;-78
2021/11/05 14:32:30;;;;;;;2.38;0.45;;;12.60;99.90;;;;;;4888442;29;20060;-79
2021/11/05 14:35:03;;;;;;;1.33;0.40;;;12.60;99.90;;;;;;4887185;29;20414;-79
2021/11/05 14:37:40;;;;;;;1.33;0.40;;;12.50;99.90;;;;;;4889804;29;20482;-78
2021/11/05 14:40:17;;;;;;;0.90;0.30;;;12.50;99.90;;;;;;4889588;29;20091;-79
2021/11/05 14:42:44;;;;;;;2.90;0.40;;;12.60;99.90;;;;;;4890759;29;20052;-78
2021/11/05 14:45:24;;;;;;;1.00;0.30;;;12.50;99.90;;;;;;4885478;29;20097;-78
2021/11/05 14:47:52;;;;;;;3.05;0.68;;;12.50;99.90;;;;;;4876931;29;20060;-79
2021/11/05 14:50:25;;;;;;;1.48;0.50;;;12.50;99.90;;;;;;4880565;29;20136;-79
2021/11/05 14:53:02;;;;;;;1.98;0.47;;;12.40;99.90;;;;;;4880496;29;20057;-79
2021/11/05 14:55:44;;;;;;;2.28;0.50;;;12.40;99.90;;;;;;4880174;29;20049;-79
2021/11/05 14:58:21;;;;;;;1.45;0.50;;;12.40;99.90;;;;;;4880498;29;20056;-79
2021/11/05 15:00:56;;;;;;;3.60;0.65;;;12.40;99.90;;;;;;4880884;29;20065;-79
2021/11/05 15:03:29;;;;;;;2.05;0.50;;;12.40;99.90;;;;;;4882059;29;20079;-80
2021/11/05 15:06:09;;;;;;;2.15;0.50;;;12.30;99.90;;;;;;4886978;29;20479;-80
2021/11/05 15:08:59;;;;;;;2.90;0.50;;;12.30;99.90;;;;;;4873774;29;20076;-80
2021/11/05 15:11:26;;;;;;;2.17;0.60;;;12.30;99.90;;;;;;4880588;29;20052;-80
2021/11/05 15:13:56;;;;;;;3.28;1.00;;;12.30;99.90;;;;;;4887455;29;20080;-80
2021/11/05 15:16:24;;;;;;;2.22;0.40;;;12.30;99.90;;;;;;4889588;29;20538;-80
2021/11/05 15:18:56;;;;;;;4.70;2.20;;;12.20;99.90;;;;;;4890797;29;20072;-80
2021/11/05 15:21:24;;;;;;;1.67;0.90;;;12.30;99.90;;;;;;4890618;29;20048;-80
2021/11/05 15:23:52;;;;;;;2.47;1.38;;;12.20;99.90;;;;;;4890342;29;20147;-80
2021/11/05 15:26:21;;;;;;;5.13;3.17;;;12.20;99.90;;;;;;4889423;29;20080;-80
2021/11/05 15:28:52;;;;;;;2.80;1.00;;;12.10;99.90;;;;;;4883075;29;20084;-81
2021/11/05 15:31:19;;;;;;;2.53;0.50;;;12.10;99.90;;;;;;4877323;29;20084;-79
2021/11/05 15:33:46;;;;;;;0.93;0.50;;;12.00;99.90;;;;;;4877453;29;20049;-79
2021/11/05 15:36:13;;;;;;;3.08;0.80;;;12.00;99.90;;;;;;4880124;29;20578;-79
2021/11/05 15:38:42;;;;;;;2.30;0.90;;;11.90;99.90;;;;;;4879142;29;20363;-80
2021/11/05 15:41:10;;;;;;;2.55;0.70;;;11.90;99.90;;;;;;4875120;29;20064;-78
2021/11/05 15:43:37;;;;;;;4.18;0.80;;;11.80;99.90;;;;;;4877244;29;20637;-79
2021/11/05 15:46:12;;;;;;;4.47;0.90;;;11.70;99.90;;;;;;4878311;29;20052;-79
2021/11/05 15:48:40;;;;;;;1.33;0.43;;;11.70;99.90;;;;;;4876843;29;20049;-80
2021/11/05 15:51:08;;;;;;;5.40;0.70;;;11.60;99.90;;;;;;4872449;29;20052;-78
2021/11/05 15:53:38;;;;;;;3.45;0.63;;;11.60;99.90;;;;;;4877959;29;20103;-79
2021/11/05 15:56:07;;;;;;;4.97;0.63;;;11.60;99.90;;;;;;4879036;29;20399;-79
2021/11/05 15:58:34;;;;;;;5.07;0.57;;;11.50;99.90;;;;;;4877743;29;20117;-78
2021/11/05 16:01:04;;;;;;;3.50;0.50;;;11.50;99.90;;;;;;4878125;29;20119;-78
2021/11/05 16:03:31;;;;;;;2.47;0.77;;;11.50;99.90;;;;;;4874891;29;20049;-77
2021/11/05 16:05:58;;;;;;;1.58;0.60;;;11.40;99.90;;;;;;4877663;29;20081;-80
2021/11/05 16:08:25;;;;;;;4.45;0.70;;;11.40;99.90;;;;;;4876239;29;20113;-79
2021/11/05 16:10:52;;;;;;;2.78;0.60;;;11.40;99.90;;;;;;4876808;29;20077;-80
2021/11/05 16:13:19;;;;;;;3.83;1.15;;;11.30;99.90;;;;;;4875628;29;20605;-80
2021/11/05 16:15:46;;;;;;;4.00;1.17;;;11.30;99.90;;;;;;4873797;29;20665;-79
2021/11/05 16:18:13;;;;;;;5.47;1.40;;;11.30;99.90;;;;;;4870411;29;20045;-80
2021/11/05 16:20:40;;;;;;;1.92;1.25;;;11.20;99.90;;;;;;4873028;29;20514;-79
2021/11/05 16:23:08;;;;;;;2.10;1.02;;;11.20;99.90;;;;;;4873239;29;20056;-78
2021/11/05 16:25:36;;;;;;;1.60;0.80;;;11.10;99.90;;;;;;4873310;29;20124;-80
2021/11/05 16:28:05;;;;;;;2.92;0.95;;;11.10;99.90;;;;;;4881013;29;20056;-79
2021/11/05 16:30:32;;;;;;;4.72;0.90;;;11.00;99.90;;;;;;4874062;29;20048;-81
2021/11/05 16:33:01;;;;;;;1.83;0.80;;;11.00;99.90;;;;;;4876121;29;20055;-81
2021/11/05 16:35:28;;;;;;;3.47;1.00;;;10.90;99.90;;;;;;4871198;29;20057;-79
2021/11/05 16:37:56;;;;;;;2.65;0.88;;;10.70;99.90;;;;;;4870247;29;20056;-79
2021/11/05 16:40:25;;;;;;;1.90;1.27;;;10.70;99.90;;;;;;4877547;29;20044;-79
2021/11/05 16:42:55;;;;;;;3.70;1.17;;;10.60;99.90;;;;;;4879519;29;20132;-80
2021/11/05 16:45:22;;;;;;;1.75;0.93;;;10.50;99.90;;;;;;4873569;29;20482;-79
2021/11/05 16:47:54;;;;;;;10.98;3.75;;;10.40;99.90;;;;;;4875364;29;20060;-80
2021/11/05 16:50:24;;;;;;;2.83;0.93;;;10.30;99.90;;;;;;4875260;29;20056;-79
2021/11/05 16:52:52;;;;;;;5.95;1.90;;;10.20;99.90;;;;;;4876550;29;20075;-80
2021/11/05 16:55:20;;;;;;;4.20;0.90;;;10.20;99.90;;;;;;4877295;29;20113;-79
2021/11/05 16:57:47;;;;;;;5.85;2.03;;;10.10;99.90;;;;;;4875336;29;20101;-79
2021/11/05 17:00:17;;;;;;;5.57;1.95;;;10.00;99.90;;;;;;4872257;29;20095;-79
2021/11/05 17:02:44;;;;;;;4.97;1.67;;;9.90;99.90;;;;;;4876525;29;20049;-79
2021/11/05 17:05:13;;;;;;;5.30;0.90;;;9.90;99.90;;;;;;4875112;29;20105;-80
2021/11/05 17:07:41;;;;;;;5.70;1.30;;;9.80;99.90;;;;;;4875713;29;20057;-80
2021/11/05 17:10:10;;;;;;;3.25;1.10;;;9.80;99.90;;;;;;4874452;29;20472;-80
2021/11/05 17:12:37;;;;;;;6.18;1.25;;;9.80;99.90;;;;;;4877382;29;20056;-79
2021/11/05 17:15:07;;;;;;;10.25;4.25;;;9.70;99.90;;;;;;4884157;29;20071;-79
2021/11/05 17:17:35;;;;;;;3.35;1.88;;;9.70;99.90;;;;;;4884031;29;20751;-79
2021/11/05 17:20:03;;;;;;;;;;;9.70;99.90;;;;;;4884922;29;20076;-79
2021/11/05 17:22:30;;;;;;;7.40;2.33;;;9.60;99.90;;;;;;4880417;29;20569;-79
2021/11/05 17:24:59;;;;;;;5.03;1.67;;;9.60;99.90;;;;;;4877022;29;20087;-80
2021/11/05 17:27:27;;;;;;;5.90;1.70;;;9.50;99.90;;;;;;4874858;29;20097;-79
2021/11/05 17:29:54;;;;;;;8.20;2.17;;;9.50;99.90;;;;;;4872317;29;20056;-78
2021/11/05 17:32:24;;;;;;;4.68;2.08;;;9.50;99.90;;;;;;4871071;29;20045;-77
2021/11/05 17:34:53;;;;;;;5.57;2.20;;;9.50;99.90;;;;;;4871533;29;20065;-78
2021/11/05 17:37:22;;;;;;;6.22;2.38;;;9.50;99.90;;;;;;4872771;29;20132;-81
2021/11/05 17:39:54;;;;;;;8.27;3.00;;;9.40;99.90;;;;;;4871615;29;20053;-81
2021/11/05 17:42:24;;;;;;;8.55;2.08;;;9.50;99.90;;;;;;4866226;29;20053;-79
2021/11/05 17:44:54;;;;;;;9.95;2.20;;;9.50;99.90;;;;;;4873297;29;20056;-79
2021/11/05 17:47:24;;;;;;;5.50;2.40;;;9.40;99.90;;;;;;4876296;29;20049;-81
2021/11/05 17:49:54;;;;;;;5.47;2.20;;;9.40;99.90;;;;;;4886656;29;20049;-79
2021/11/05 17:52:21;;;;;;;11.48;4.30;;;9.30;99.90;;;;;;4891149;29;20072;-80
2021/11/05 17:54:48;;;;;;;9.30;3.33;;;9.20;99.90;;;;;;4888907;29;20048;-79
2021/11/05 17:57:17;;;;;;;10.77;5.03;;;9.20;99.90;;;;;;4892455;29;20132;-79
2021/11/05 17:59:43;;;;;;;10.60;5.85;;;9.10;99.90;;;;;;4888641;29;20061;-78
2021/11/05 18:02:13;;;;;;;17.33;9.60;;;9.10;99.90;;;;;;4874769;29;20097;-79
2021/11/05 18:04:40;;;;;;;13.43;6.72;;;9.00;99.90;;;;;;4883350;29;20045;-78
2021/11/05 18:07:07;;;;;;;10.48;4.82;;;9.00;99.90;;;;;;4870256;29;20041;-79
2021/11/05 18:09:34;;;;;;;6.53;3.13;;;9.00;99.90;;;;;;4874914;29;20502;-79
2021/11/05 18:12:01;;;;;;;7.80;4.10;;;8.90;99.90;;;;;;4871700;29;20078;-80
2021/11/05 18:14:28;;;;;;;11.60;4.15;;;8.90;99.90;;;;;;4884954;29;20518;-79
2021/11/05 18:16:55;;;;;;;8.18;4.07;;;9.00;99.90;;;;;;4886579;29;20044;-79
2021/11/05 18:19:22;;;;;;;7.07;3.05;;;9.00;99.90;;;;;;4887405;29;20068;-78
2021/11/05 18:21:51;;;;;;;7.60;3.78;;;9.00;99.90;;;;;;4887933;29;20048;-79
2021/11/05 18:24:19;;;;;;;10.05;4.85;;;8.90;99.90;;;;;;4884455;29;20076;-78
2021/11/05 18:26:47;;;;;;;8.98;4.32;;;8.90;99.90;;;;;;4884520;29;20223;-78
2021/11/05 18:29:18;;;;;;;11.23;4.20;;;8.90;99.90;;;;;;4886936;29;20048;-79
2021/11/05 18:31:45;;;;;;;9.63;3.70;;;8.90;99.90;;;;;;4869324;29;20088;-79
2021/11/05 18:34:13;;;;;;;7.78;3.47;;;8.90;99.90;;;;;;4888819;29;20474;-78
2021/11/05 18:36:40;;;;;;;10.82;4.70;;;8.90;99.90;;;;;;4891974;29;20048;-79
2021/11/05 18:39:09;;;;;;;8.75;3.45;;;8.90;99.90;;;;;;4889784;29;20987;-78
2021/11/05 18:41:37;;;;;;;13.23;5.07;;;8.90;99.90;;;;;;4891056;29;20048;-78
2021/11/05 18:44:05;;;;;;;18.63;7.80;;;8.90;99.90;;;;;;4887833;29;20060;-78
2021/11/05 18:46:33;;;;;;;13.80;7.07;;;8.90;99.90;;;;;;4890085;29;20068;-77
2021/11/05 18:49:00;;;;;;;16.42;7.40;;;8.90;99.90;;;;;;4889156;29;20410;-79
2021/11/05 18:51:27;;;;;;;14.15;6.90;;;8.90;99.90;;;;;;4888837;29;20056;-79
2021/11/05 18:53:54;;;;;;;8.73;3.88;;;8.80;99.90;;;;;;4881802;29;20109;-77
2021/11/05 18:56:21;;;;;;;8.10;3.30;;;8.80;99.90;;;;;;4889195;29;20113;-79
2021/11/05 18:58:48;;;;;;;6.65;3.22;;;8.80;99.90;;;;;;4885399;29;20143;-79
2021/11/05 19:01:16;;;;;;;18.85;7.38;;;8.70;99.90;;;;;;4880417;29;20112;-78
2021/11/05 19:03:45;;;;;;;6.72;3.20;;;8.70;99.90;;;;;;4878377;29;20135;-79
2021/11/05 19:06:14;;;;;;;10.30;3.92;;;8.70;99.90;;;;;;4877378;29;20055;-78
2021/11/05 19:08:41;;;;;;;8.57;3.10;;;8.70;99.90;;;;;;4881774;29;20115;-79
2021/11/05 19:11:11;;;;;;;5.13;2.78;;;8.70;99.90;;;;;;4878592;29;20536;-80
2021/11/05 19:13:40;;;;;;;13.43;5.60;;;8.60;99.90;;;;;;4885296;29;20048;-80
2021/11/05 19:16:09;;;;;;;;;;;8.60;99.90;;;;;;4880209;29;20064;-81
2021/11/05 19:18:38;;;;;;;9.82;4.20;;;8.60;99.90;;;;;;4885821;29;19975;-80
2021/11/05 19:21:05;;;;;;;23.38;11.73;;;8.50;99.90;;;;;;4883719;29;20083;-80
2021/11/05 19:23:33;;;;;;;31.63;13.05;;;8.50;99.90;;;;;;4887589;29;20119;-79
2021/11/05 19:26:00;;;;;;;13.45;8.10;;;8.50;99.90;;;;;;4877304;29;20108;-79
2021/11/05 19:28:28;;;;;;;5.68;1.77;;;8.50;99.90;;;;;;4879160;29;20045;-79
2021/11/05 19:30:57;;;;;;;5.68;1.80;;;8.40;99.90;;;;;;4876135;29;20052;-79
2021/11/05 19:33:24;;;;;;;4.63;2.08;;;8.40;99.90;;;;;;4874437;29;20536;-80
2021/11/05 19:35:53;;;;;;;15.32;7.18;;;8.40;99.90;;;;;;4875651;29;20049;-80
2021/11/05 19:38:20;;;;;;;;;;;8.40;99.90;;;;;;4881067;29;20049;-80
2021/11/05 19:40:48;;;;;;;5.32;3.80;;;8.30;99.90;;;;;;4878352;29;19924;-80
2021/11/05 19:43:15;;;;;;;6.75;3.65;;;8.20;99.90;;;;;;4879914;29;20117;-81
2021/11/05 19:45:43;;;;;;;15.55;8.98;;;8.20;99.90;;;;;;4870283;29;20052;-77
2021/11/05 19:48:10;;;;;;;5.88;4.43;;;8.10;99.90;;;;;;4877221;29;20063;-79
2021/11/05 19:50:39;;;;;;;6.30;2.08;;;8.00;99.90;;;;;;4883910;29;20053;-80
2021/11/05 19:53:07;;;;;;;3.30;1.48;;;8.00;99.90;;;;;;4879414;29;20048;-80
2021/11/05 19:55:36;;;;;;;3.15;1.52;;;7.90;99.90;;;;;;4879544;29;20056;-81
2021/11/05 19:58:04;;;;;;;6.20;2.30;;;7.90;99.90;;;;;;4887357;29;20048;-80
2021/11/05 20:00:32;;;;;;;5.47;1.60;;;7.90;99.90;;;;;;4866937;29;20459;-80
2021/11/05 20:03:01;;;;;;;10.43;2.28;;;7.90;99.90;;;;;;4883353;29;20372;-80
2021/11/05 20:05:29;;;;;;;5.57;2.25;;;7.90;99.90;;;;;;4881501;29;20054;-79
2021/11/05 20:07:56;;;;;;;6.32;2.67;;;7.90;99.90;;;;;;4885668;29;20737;-80